Time;durP1;ratioP1;P1;durP2;ratioP2;P2;SDS_P1;SDS_P2;PMS_P1;PMS_P2;Temp;Humidity;BMP_temperature;BMP_pressure;BME280_temperature;BME280_humidity;BME280_pressure;Samples;Min_cycle;Max_cycle;Signal;HPM_P1;HPM_P2
2024/04/20 00:00:42;;;;;;;8.10;5.10;;;;;;;11.80;54.13;100623.08;106532;1256;59498;-87
2024/04/20 00:03:10;;;;;;;7.00;4.80;;;;;;;12.20;52.25;100629.73;106578;1251;61119;-86
2024/04/20 00:05:38;;;;;;;7.90;4.20;;;;;;;12.10;52.01;100629.27;106657;1256;75142;-80
2024/04/20 00:08:05;;;;;;;10.20;5.00;;;;;;;11.85;53.44;100631.11;106522;1254;67227;-86
2024/04/20 00:10:34;;;;;;;9.10;5.00;;;;;;;11.81;53.10;100628.39;106591;1251;72766;-80
2024/04/20 00:13:02;;;;;;;8.30;5.10;;;;;;;12.06;52.32;100627.65;106513;1257;61237;-87
2024/04/20 00:15:29;;;;;;;7.50;4.80;;;;;;;11.99;51.96;100630.00;106810;1251;61218;-86
2024/04/20 00:17:57;;;;;;;8.30;5.10;;;;;;;12.16;51.14;100629.23;106613;1255;74734;-80
2024/04/20 00:20:25;;;;;;;9.30;5.00;;;;;;;12.22;50.29;100629.55;106702;1251;68458;-80
2024/04/20 00:22:53;;;;;;;10.20;4.90;;;;;;;11.71;51.92;100631.73;106591;1254;71492;-86
2024/04/20 00:25:20;;;;;;;7.30;4.80;;;;;;;11.58;52.26;100630.52;106678;1257;61259;-80
2024/04/20 00:27:48;;;;;;;6.70;4.40;;;;;;;11.10;54.68;100633.59;106590;1251;61151;-80
2024/04/20 00:30:16;;;;;;;6.40;4.50;;;;;;;11.79;52.40;100629.67;106670;1256;74729;-86
2024/04/20 00:32:44;;;;;;;9.20;5.80;;;;;;;11.95;51.22;100628.70;106742;1254;68586;-80
2024/04/20 00:35:15;;;;;;;8.00;4.90;;;;;;;11.98;50.69;100631.65;106478;1253;71485;-87
2024/04/20 00:37:42;;;;;;;9.90;5.00;;;;;;;12.07;50.39;100629.45;106542;1254;61351;-86
2024/04/20 00:40:10;;;;;;;7.20;4.70;;;;;;;11.85;50.66;100635.39;106542;1251;61358;-81
2024/04/20 00:42:38;;;;;;;10.50;4.50;;;;;;;12.00;50.25;100637.21;106579;1253;74712;-85
2024/04/20 00:45:06;;;;;;;7.40;4.50;;;;;;;12.23;49.43;100633.38;106365;1254;68497;-86
2024/04/20 00:47:35;;;;;;;10.00;5.40;;;;;;;12.56;47.83;100626.73;106431;1253;72676;-85
2024/04/20 00:50:03;;;;;;;7.80;4.70;;;;;;;11.75;49.74;100628.18;106440;1253;61242;-80
2024/04/20 00:52:31;;;;;;;7.30;4.60;;;;;;;11.77;51.13;100629.77;106508;1254;61323;-86
2024/04/20 00:54:59;;;;;;;7.70;4.50;;;;;;;12.30;48.56;100628.39;106507;1251;73424;-86
2024/04/20 00:57:26;;;;;;;7.60;4.80;;;;;;;12.32;48.22;100626.13;106505;1256;68459;-79
2024/04/20 00:59:54;;;;;;;6.80;4.80;;;;;;;12.59;47.30;100622.55;106497;1251;72472;-80
2024/04/20 01:02:22;;;;;;;6.20;4.30;;;;;;;12.79;46.51;100625.73;106404;1256;61237;-80
2024/04/20 01:04:50;;;;;;;6.60;3.90;;;;;;;12.93;46.14;100626.43;106538;1251;61244;-80
2024/04/20 01:07:17;;;;;;;6.80;4.20;;;;;;;12.85;46.29;100633.75;106856;1251;75088;-81
2024/04/20 01:09:45;;;;;;;6.70;4.20;;;;;;;12.40;47.24;100637.85;106478;1254;67581;-88
2024/04/20 01:12:12;;;;;;;6.70;4.80;;;;;;;12.25;47.73;100643.09;106669;1257;72783;-86
2024/04/20 01:14:40;;;;;;;7.10;4.80;;;;;;;11.97;48.77;100640.08;106797;1256;61355;-86
2024/04/20 01:17:08;;;;;;;7.30;4.00;;;;;;;12.30;47.74;100642.31;106645;1257;61147;-81
2024/04/20 01:19:36;;;;;;;6.80;3.90;;;;;;;11.90;48.50;100647.58;106670;1253;73339;-81
2024/04/20 01:22:04;;;;;;;7.20;4.80;;;;;;;12.16;47.99;100648.79;106589;1251;67331;-81
2024/04/20 01:24:31;;;;;;;7.40;4.60;;;;;;;11.98;48.19;100652.23;106652;1254;72771;-80
2024/04/20 01:27:00;;;;;;;8.30;3.80;;;;;;;11.89;47.95;100651.92;106596;1251;61231;-87
2024/04/20 01:29:27;;;;;;;8.80;4.40;;;;;;;10.69;52.53;100655.91;106597;1251;61583;-81
2024/04/20 01:31:55;;;;;;;6.10;4.00;;;;;;;10.67;53.21;100661.99;106345;1256;74677;-80
2024/04/20 01:34:23;;;;;;;7.40;4.20;;;;;;;11.63;49.94;100664.07;106506;1256;67304;-88
2024/04/20 01:36:50;;;;;;;5.80;4.10;;;;;;;11.76;48.48;100662.90;106514;1254;72710;-80
2024/04/20 01:39:18;;;;;;;6.40;4.50;;;;;;;9.27;58.14;100670.76;106514;1254;61338;-80
2024/04/20 01:41:46;;;;;;;7.10;4.60;;;;;;;9.52;62.44;100665.39;106678;1257;61195;-80
2024/04/20 01:44:14;;;;;;;9.00;4.40;;;;;;;10.00;57.73;100664.05;106699;1251;74615;-80
2024/04/20 01:46:42;;;;;;;5.80;4.10;;;;;;;9.87;58.49;100662.77;106756;1254;67638;-80
2024/04/20 01:49:09;;;;;;;6.80;4.40;;;;;;;9.71;59.64;100660.88;106804;1253;71157;-88
2024/04/20 01:51:37;;;;;;;7.90;5.30;;;;;;;9.43;61.58;100662.13;106519;1255;61377;-87
2024/04/20 01:54:06;;;;;;;10.80;5.90;;;;;;;9.40;62.43;100663.23;106738;1251;61444;-80
2024/04/20 01:56:33;;;;;;;9.10;5.20;;;;;;;9.48;61.49;100663.73;106646;1254;74635;-80
2024/04/20 01:59:01;;;;;;;6.20;4.00;;;;;;;9.53;61.48;100664.67;106590;1254;68539;-80
2024/04/20 02:01:31;;;;;;;6.40;3.70;;;;;;;9.87;59.53;100663.59;106603;1256;71467;-80
2024/04/20 02:04:00;;;;;;;9.00;4.50;;;;;;;10.26;56.95;100656.79;106725;1251;61233;-80
2024/04/20 02:06:28;;;;;;;5.20;4.00;;;;;;;8.92;64.12;100661.49;106561;1257;61238;-87
2024/04/20 02:08:55;;;;;;;7.10;4.00;;;;;;;8.40;71.46;100668.55;106660;1257;74911;-87
2024/04/20 02:11:23;;;;;;;8.00;5.00;;;;;;;8.51;70.64;100663.66;106727;1254;68546;-86
2024/04/20 02:13:50;;;;;;;7.40;4.00;;;;;;;8.36;71.81;100666.30;106719;1254;72718;-80
2024/04/20 02:16:18;;;;;;;5.40;4.20;;;;;;;8.25;73.27;100663.68;106564;1251;61484;-86
2024/04/20 02:18:45;;;;;;;5.40;4.10;;;;;;;8.34;72.44;100664.86;106559;1251;61493;-81
2024/04/20 02:21:18;;;;;;;6.20;4.20;;;;;;;8.44;71.93;100666.09;106650;1256;73438;-81
2024/04/20 02:23:45;;;;;;;7.00;4.10;;;;;;;8.79;68.70;100666.48;106732;1255;67318;-80
2024/04/20 02:26:13;;;;;;;6.10;4.10;;;;;;;9.03;66.28;100668.70;106456;1254;71817;-81
2024/04/20 02:28:41;;;;;;;6.40;4.20;;;;;;;8.79;67.70;100671.66;106529;1254;61260;-87
2024/04/20 02:31:08;;;;;;;5.20;3.30;;;;;;;8.76;68.09;100668.42;106572;1256;61260;-81
2024/04/20 02:33:36;;;;;;;8.90;4.90;;;;;;;8.72;68.28;100667.23;106518;1254;73390;-80
2024/04/20 02:36:04;;;;;;;8.40;4.80;;;;;;;8.73;68.15;100672.16;106456;1254;67729;-87
2024/04/20 02:38:31;;;;;;;9.20;5.60;;;;;;;8.71;68.34;100677.60;106476;1254;71602;-87
2024/04/20 02:40:59;;;;;;;9.30;4.50;;;;;;;8.75;68.26;100682.20;106608;1251;61408;-87
2024/04/20 02:43:26;;;;;;;7.00;4.40;;;;;;;8.84;67.58;100684.28;106670;1254;61106;-87
2024/04/20 02:45:54;;;;;;;9.40;5.20;;;;;;;8.83;67.65;100686.02;106485;1254;74677;-80
2024/04/20 02:48:21;;;;;;;7.00;4.90;;;;;;;8.93;66.63;100690.00;106676;1257;67280;-80
2024/04/20 02:50:49;;;;;;;7.80;5.10;;;;;;;9.24;64.60;100693.89;106612;1251;72696;-81
2024/04/20 02:53:17;;;;;;;8.50;5.00;;;;;;;9.59;61.20;100697.39;106592;1257;61365;-86
2024/04/20 02:55:44;;;;;;;9.30;5.50;;;;;;;9.35;62.99;100698.77;106722;1251;61183;-86
2024/04/20 02:58:12;;;;;;;7.10;4.70;;;;;;;9.41;61.83;100697.70;106635;1256;74668;-80
2024/04/20 03:00:39;;;;;;;9.00;5.30;;;;;;;9.16;63.98;100704.92;106561;1254;68840;-86
2024/04/20 03:03:07;;;;;;;8.80;5.50;;;;;;;9.53;61.82;100699.65;106478;1255;73627;-87
2024/04/20 03:05:35;;;;;;;10.20;5.50;;;;;;;9.63;60.92;100701.77;106419;1254;61216;-80
2024/04/20 03:08:03;;;;;;;9.70;4.90;;;;;;;9.94;59.46;100701.61;106459;1254;61231;-86
2024/04/20 03:10:30;;;;;;;8.20;6.30;;;;;;;10.01;58.47;100702.33;106673;1251;74660;-80
2024/04/20 03:12:58;;;;;;;8.10;4.60;;;;;;;8.79;66.96;100711.91;106626;1256;67577;-80
2024/04/20 03:15:26;;;;;;;7.50;4.40;;;;;;;8.67;71.78;100713.60;106644;1257;72732;-86
2024/04/20 03:17:54;;;;;;;7.80;4.40;;;;;;;9.16;67.55;100714.03;106717;1251;61151;-80
2024/04/20 03:20:22;;;;;;;8.10;5.30;;;;;;;8.91;69.22;100716.61;106537;1258;61164;-80
2024/04/20 03:22:49;;;;;;;8.00;5.30;;;;;;;9.13;68.75;100716.30;106424;1257;75194;-86
2024/04/20 03:25:16;;;;;;;7.70;5.20;;;;;;;8.79;71.53;100723.36;106502;1251;68594;-86
2024/04/20 03:27:46;;;;;;;9.00;5.60;;;;;;;8.71;73.77;100722.97;106595;1251;71080;-86
2024/04/20 03:30:14;;;;;;;10.30;5.60;;;;;;;8.18;80.58;100719.48;106577;1254;61419;-87
2024/04/20 03:32:42;;;;;;;10.90;5.40;;;;;;;8.41;79.92;100723.20;106563;1251;61307;-86
2024/04/20 03:35:09;;;;;;;8.30;4.90;;;;;;;9.58;72.05;100718.67;106511;1251;72938;-80
2024/04/20 03:37:36;;;;;;;9.70;6.20;;;;;;;9.68;69.78;100721.55;106550;1254;68737;-86
2024/04/20 03:40:05;;;;;;;10.40;5.80;;;;;;;10.22;66.90;100723.73;106447;1257;71277;-87
2024/04/20 03:42:33;;;;;;;11.60;6.20;;;;;;;10.26;66.25;100725.02;106623;1252;61441;-86
2024/04/20 03:45:00;;;;;;;9.30;5.70;;;;;;;10.34;66.66;100727.19;106489;1254;61349;-80
2024/04/20 03:47:28;;;;;;;8.30;5.30;;;;;;;10.95;63.26;100722.05;106492;1256;73690;-81
2024/04/20 03:49:56;;;;;;;10.70;5.90;;;;;;;11.07;62.99;100722.19;106500;1252;68990;-80
2024/04/20 03:52:23;;;;;;;10.80;6.70;;;;;;;11.20;63.68;100722.05;106679;1256;71446;-87
2024/04/20 03:54:50;;;;;;;9.20;5.80;;;;;;;11.19;66.66;100725.40;106586;1257;62155;-87
2024/04/20 03:57:18;;;;;;;9.30;6.00;;;;;;;11.78;66.07;100727.38;106579;1254;62136;-81
2024/04/20 03:59:45;;;;;;;9.70;5.90;;;;;;;12.48;62.88;100730.96;106733;1257;75549;-86
2024/04/20 04:02:14;;;;;;;8.60;6.10;;;;;;;12.97;60.11;100734.69;106699;1251;68640;-81
2024/04/20 04:04:41;;;;;;;10.20;5.30;;;;;;;13.02;59.94;100738.25;106690;1255;71844;-81
2024/04/20 04:07:09;;;;;;;8.60;5.10;;;;;;;12.87;61.38;100739.88;106654;1257;62041;-81
2024/04/20 04:09:36;;;;;;;7.80;5.00;;;;;;;12.64;62.83;100744.17;106554;1255;62158;-81
2024/04/20 04:12:04;;;;;;;10.20;5.50;;;;;;;12.62;62.57;100744.23;106531;1257;75702;-81
2024/04/20 04:14:32;;;;;;;9.50;5.30;;;;;;;12.67;62.06;100751.16;106530;1251;68909;-81
2024/04/20 04:16:59;;;;;;;8.00;5.10;;;;;;;12.78;62.38;100746.70;106672;1257;72702;-82
2024/04/20 04:19:27;;;;;;;15.70;11.70;;;;;;;12.55;65.11;100741.64;106427;1259;62124;-82
2024/04/20 04:21:55;;;;;;;27.30;16.70;;;;;;;12.86;66.96;100741.08;106389;1256;61967;-88
2024/04/20 04:24:24;;;;;;;16.60;9.70;;;;;;;13.46;63.63;100735.53;106713;1257;75520;-88
2024/04/20 04:26:53;;;;;;;13.50;7.90;;;;;;;13.51;65.72;100733.21;106521;1257;68488;-82
2024/04/20 04:29:20;;;;;;;9.60;6.60;;;;;;;12.79;72.46;100741.23;106482;1257;72710;-82
2024/04/20 04:31:48;;;;;;;8.70;5.80;;;;;;;12.91;76.89;100739.65;106380;1259;62034;-83
2024/04/20 04:34:15;;;;;;;10.20;6.10;;;;;;;12.94;78.29;100737.88;106434;1251;62025;-83
2024/04/20 04:36:43;;;;;;;10.20;5.90;;;;;;;13.66;75.78;100735.16;106604;1257;74209;-83
2024/04/20 04:39:10;;;;;;;6.70;5.70;;;;;;;13.96;73.29;100734.54;106549;1254;68479;-83
2024/04/20 04:41:38;;;;;;;9.40;5.30;;;;;;;14.10;73.64;100735.16;106676;1254;71151;-89
2024/04/20 04:44:05;;;;;;;8.40;5.80;;;;;;;14.08;74.30;100737.45;106391;1251;62065;-89
2024/04/20 04:46:33;;;;;;;8.20;5.50;;;;;;;13.84;78.04;100740.73;106431;1256;62031;-84
2024/04/20 04:49:01;;;;;;;9.70;6.50;;;;;;;14.75;72.62;100735.54;106201;1256;74585;-83
2024/04/20 04:51:29;;;;;;;9.50;6.30;;;;;;;14.90;72.06;100734.95;106554;1256;68435;-83
2024/04/20 04:53:57;;;;;;;8.00;5.80;;;;;;;15.04;72.76;100740.17;106476;1251;72707;-83
2024/04/20 04:56:26;;;;;;;8.30;5.50;;;;;;;15.12;75.45;100740.63;106617;1256;62158;-83
2024/04/20 04:58:58;;;;;;;8.60;6.00;;;;;;;15.60;73.71;100741.16;106813;1257;62054;-83
2024/04/20 05:01:27;;;;;;;10.80;6.10;;;;;;;16.11;71.54;100748.51;106442;1257;75477;-89
2024/04/20 05:03:54;;;;;;;10.10;6.50;;;;;;;15.78;75.15;100749.89;106446;1257;67557;-89
2024/04/20 05:06:22;;;;;;;9.50;6.30;;;;;;;15.52;80.65;100754.80;106371;1257;70811;-92
2024/04/20 05:08:50;;;;;;;9.30;6.20;;;;;;;15.78;80.75;100752.33;106591;1251;62155;-90
2024/04/20 05:11:18;;;;;;;9.30;6.70;;;;;;;16.53;75.62;100753.77;106602;1257;61985;-89
2024/04/20 05:13:45;;;;;;;9.70;6.00;;;;;;;16.78;75.30;100758.89;106630;1256;77436;-90
2024/04/20 05:16:13;;;;;;;7.80;5.40;;;;;;;17.04;74.39;100753.95;106759;1256;69213;-89
2024/04/20 05:18:40;;;;;;;7.60;4.90;;;;;;;18.40;64.07;100753.80;106708;1251;73006;-90
2024/04/20 05:21:08;;;;;;;9.40;5.70;;;;;;;17.66;68.36;100754.96;106589;1254;62031;-89
2024/04/20 05:23:35;;;;;;;10.40;5.60;;;;;;;18.06;67.59;100755.64;106762;1254;62075;-90
2024/04/20 05:26:03;;;;;;;8.70;5.20;;;;;;;18.57;64.10;100753.11;106732;1256;75319;-83
2024/04/20 05:28:32;;;;;;;9.70;5.80;;;;;;;19.26;59.49;100753.43;106374;1254;68534;-89
2024/04/20 05:31:00;;;;;;;11.40;6.60;;;;;;;19.93;54.69;100752.23;106588;1256;71116;-83
2024/04/20 05:33:29;;;;;;;10.20;6.50;;;;;;;20.26;52.63;100747.80;106501;1257;62116;-89
2024/04/20 05:36:01;;;;;;;13.60;6.20;;;;;;;20.84;49.46;100750.14;106587;1256;62122;-82
2024/04/20 05:38:29;;;;;;;11.90;6.20;;;;;;;20.17;51.33;100750.77;106470;1251;75549;-82
2024/04/20 05:41:02;;;;;;;12.90;6.80;;;;;;;20.01;50.46;100748.57;106605;1256;67263;-82
2024/04/20 05:43:29;;;;;;;12.40;6.50;;;;;;;20.13;50.20;100749.75;106419;1256;70773;-82
2024/04/20 05:45:58;;;;;;;10.10;5.80;;;;;;;20.78;48.18;100750.30;106386;1251;62059;-82
2024/04/20 05:48:26;;;;;;;8.70;5.40;;;;;;;20.72;47.41;100751.27;106387;1254;62146;-82
2024/04/20 05:50:53;;;;;;;11.50;5.10;;;;;;;21.44;45.30;100749.59;106418;1257;75502;-82
2024/04/20 05:53:21;;;;;;;10.00;5.30;;;;;;;22.10;42.49;100750.55;106555;1253;68562;-82
2024/04/20 05:55:49;;;;;;;11.80;6.30;;;;;;;22.16;41.81;100744.86;106709;1254;72736;-82
2024/04/20 05:58:16;;;;;;;12.80;6.20;;;;;;;22.55;41.24;100739.60;106671;1254;62218;-83
2024/04/20 06:00:46;;;;;;;11.90;6.30;;;;;;;22.23;42.19;100741.31;106363;1251;62101;-88
2024/04/20 06:03:13;;;;;;;13.30;6.40;;;;;;;21.97;43.02;100745.36;106564;1257;74234;-88
2024/04/20 06:05:42;;;;;;;12.70;5.90;;;;;;;21.85;42.91;100746.12;106714;1255;68477;-88
2024/04/20 06:08:10;;;;;;;10.50;5.70;;;;;;;22.18;42.05;100747.15;106582;1251;73868;-88
2024/04/20 06:10:38;;;;;;;9.80;5.80;;;;;;;22.60;40.72;100751.21;106594;1257;62249;-88
2024/04/20 06:13:05;;;;;;;7.40;4.80;;;;;;;23.00;39.76;100751.85;106665;1251;62117;-88
2024/04/20 06:15:34;;;;;;;7.20;4.90;;;;;;;22.30;39.69;100754.98;106627;1257;75597;-88
2024/04/20 06:18:02;;;;;;;9.90;5.30;;;;;;;22.19;39.90;100753.79;106594;1257;68869;-88
2024/04/20 06:20:30;;;;;;;5.50;4.00;;;;;;;22.46;40.13;100749.02;106364;1257;72460;-88
2024/04/20 06:22:57;;;;;;;7.70;4.40;;;;;;;21.71;40.59;100756.16;106554;1254;62193;-88
2024/04/20 06:25:25;;;;;;;8.20;4.70;;;;;;;22.14;39.99;100754.38;106642;1256;61966;-87
2024/04/20 06:27:53;;;;;;;9.20;4.30;;;;;;;23.47;37.34;100744.48;106736;1256;75709;-89
2024/04/20 06:30:22;;;;;;;8.20;4.30;;;;;;;24.19;36.33;100734.51;106392;1257;68584;-88
2024/04/20 06:32:50;;;;;;;7.60;4.00;;;;;;;24.99;34.95;100733.42;106438;1257;71561;-88
2024/04/20 06:35:17;;;;;;;8.20;4.40;;;;;;;24.26;34.36;100735.67;106840;1254;62047;-88
2024/04/20 06:37:45;;;;;;;9.30;4.50;;;;;;;21.42;37.68;100736.74;106370;1254;62236;-88
2024/04/20 06:40:13;;;;;;;8.50;5.30;;;;;;;22.29;38.92;100735.86;106584;1256;74222;-88
2024/04/20 06:42:43;;;;;;;8.70;5.50;;;;;;;23.59;37.39;100727.89;106595;1251;68645;-86
2024/04/20 06:45:10;;;;;;;13.00;6.00;;;;;;;24.47;36.22;100729.91;106736;1254;73162;-87
2024/04/20 06:47:38;;;;;;;12.60;5.70;;;;;;;21.63;40.44;100742.94;106713;1251;62133;-86
2024/04/20 06:50:08;;;;;;;12.60;5.60;;;;;;;22.58;38.62;100737.71;106608;1255;62127;-86
2024/04/20 06:52:36;;;;;;;9.00;5.00;;;;;;;21.55;38.40;100748.88;106318;1253;75515;-81
2024/04/20 06:55:03;;;;;;;7.80;4.40;;;;;;;20.89;40.17;100749.25;106616;1257;67571;-82
2024/04/20 06:57:31;;;;;;;10.10;5.60;;;;;;;20.40;42.05;100752.95;106412;1254;71514;-85
2024/04/20 06:59:59;;;;;;;8.30;4.70;;;;;;;21.46;41.32;100751.04;106611;1251;62037;-81
2024/04/20 07:02:27;;;;;;;14.00;6.30;;;;;;;23.58;37.31;100739.18;106978;1251;61961;-86
2024/04/20 07:04:55;;;;;;;10.70;5.40;;;;;;;24.35;35.34;100739.55;106693;1256;75445;-81
2024/04/20 07:07:23;;;;;;;7.80;4.20;;;;;;;24.86;33.93;100744.35;106538;1254;68581;-82
2024/04/20 07:09:50;;;;;;;6.50;4.20;;;;;;;25.24;32.61;100747.79;106399;1251;63760;-82
2024/04/20 07:12:19;;;;;;;7.70;4.40;;;;;;;24.07;34.39;100755.02;106683;1255;62161;-81
2024/04/20 07:14:46;;;;;;;5.20;3.10;;;;;;;23.88;35.05;100760.34;106607;1251;62072;-80
2024/04/20 07:17:14;;;;;;;5.90;3.90;;;;;;;23.68;35.39;100767.05;106564;1251;75505;-81
2024/04/20 07:19:41;;;;;;;3.90;3.10;;;;;;;24.73;34.24;100766.94;106458;1251;67597;-87
2024/04/20 07:22:09;;;;;;;7.70;3.10;;;;;;;26.08;30.92;100771.52;106647;1254;74928;-86
2024/04/20 07:24:40;;;;;;;3.90;3.00;;;;;;;26.41;30.46;100771.90;106630;1254;62457;-87
2024/04/20 07:27:14;;;;;;;4.40;2.90;;;;;;;25.81;31.53;100768.95;106478;1252;62156;-87
2024/04/20 07:29:42;;;;;;;4.30;3.20;;;;;;;26.45;30.58;100766.45;106712;1253;66665;-80
2024/04/20 07:32:09;;;;;;;5.80;3.40;;;;;;;26.45;31.81;100763.23;106612;1258;61968;-84
2024/04/20 07:34:37;;;;;;;5.10;3.40;;;;;;;25.90;32.59;100766.46;106587;1256;66035;-80
2024/04/20 07:37:05;;;;;;;5.10;2.80;;;;;;;25.07;33.31;100772.71;106524;1254;62197;-80
2024/04/20 07:39:33;;;;;;;2.50;2.20;;;;;;;25.56;32.21;100773.33;106924;1253;61988;-80
2024/04/20 07:42:00;;;;;;;2.10;1.90;;;;;;;22.88;34.49;100782.70;106727;1257;69062;-81
2024/04/20 07:44:28;;;;;;;2.70;2.10;;;;;;;20.71;37.84;100787.11;106791;1257;67697;-88
2024/04/20 07:47:03;;;;;;;2.70;2.20;;;;;;;22.16;36.28;100782.04;106634;1254;72984;-80
2024/04/20 07:49:38;;;;;;;2.70;2.10;;;;;;;21.43;36.86;100786.49;106712;1254;62117;-84
2024/04/20 07:52:05;;;;;;;4.50;2.20;;;;;;;23.38;33.91;100776.48;106530;1256;61951;-86
2024/04/20 07:54:33;;;;;;;3.30;2.30;;;;;;;24.68;32.17;100769.16;106593;1256;69124;-80
2024/04/20 07:57:01;;;;;;;5.70;2.70;;;;;;;25.48;31.07;100768.60;106741;1251;67587;-82
2024/04/20 07:59:28;;;;;;;3.30;2.20;;;;;;;25.22;31.58;100763.91;106519;1251;72517;-80
2024/04/20 08:01:57;;;;;;;5.80;2.60;;;;;;;25.90;30.83;100766.52;106650;1254;62044;-88
2024/04/20 08:04:24;;;;;;;3.80;2.60;;;;;;;26.65;30.06;100770.71;106491;1251;62038;-88
2024/04/20 08:06:52;;;;;;;3.40;2.50;;;;;;;27.04;29.51;100766.62;106616;1251;66565;-80
2024/04/20 08:09:20;;;;;;;5.70;2.80;;;;;;;26.68;30.04;100763.55;106477;1251;69114;-80
2024/04/20 08:11:48;;;;;;;4.70;2.40;;;;;;;26.84;29.88;100762.85;106694;1251;62675;-80
2024/04/20 08:14:15;;;;;;;4.40;2.60;;;;;;;26.32;30.37;100767.35;106590;1257;62018;-80
2024/04/20 08:16:43;;;;;;;5.60;3.70;;;;;;;25.73;31.27;100776.27;106379;1257;62238;-80
2024/04/20 08:19:10;;;;;;;5.00;3.30;;;;;;;27.28;29.42;100776.25;106530;1257;77742;-86
2024/04/20 08:21:38;;;;;;;5.70;3.40;;;;;;;25.99;31.09;100781.09;106562;1251;70663;-87
2024/04/20 08:24:05;;;;;;;4.60;2.90;;;;;;;26.98;29.78;100782.10;106564;1256;64186;-81
2024/04/20 08:26:33;;;;;;;6.00;3.20;;;;;;;24.92;31.77;100785.14;106441;1256;61993;-87
2024/04/20 08:29:01;;;;;;;6.00;3.70;;;;;;;24.06;33.47;100788.13;106667;1257;62056;-80
2024/04/20 08:31:28;;;;;;;5.50;3.90;;;;;;;24.23;33.35;100783.58;106714;1251;74575;-80
2024/04/20 08:33:56;;;;;;;7.00;4.00;;;;;;;25.60;32.22;100773.20;106772;1251;71038;-87
2024/04/20 08:36:24;;;;;;;6.60;3.50;;;;;;;23.25;35.48;100776.01;106608;1257;74965;-80
2024/04/20 08:38:51;;;;;;;5.20;3.40;;;;;;;23.44;37.03;100773.13;106790;1251;62072;-89
2024/04/20 08:41:19;;;;;;;7.70;3.70;;;;;;;26.25;32.19;100763.92;106504;1254;62109;-81
2024/04/20 08:43:47;;;;;;;5.00;2.80;;;;;;;25.75;32.92;100766.35;106527;1256;77035;-80
2024/04/20 08:46:15;;;;;;;3.70;2.40;;;;;;;25.37;32.59;100761.64;106445;1251;70779;-86
2024/04/20 08:48:45;;;;;;;4.10;2.20;;;;;;;27.42;29.43;100759.02;106697;1254;74907;-81
2024/04/20 08:51:12;;;;;;;5.90;2.50;;;;;;;25.96;31.30;100763.91;106503;1251;62088;-86
2024/04/20 08:53:41;;;;;;;4.10;2.20;;;;;;;24.76;33.21;100758.16;106534;1257;62219;-88
2024/04/20 08:56:09;;;;;;;3.20;2.00;;;;;;;25.45;32.69;100754.99;106733;1254;65289;-81
2024/04/20 08:58:37;;;;;;;4.00;2.20;;;;;;;24.91;32.60;100751.90;106910;1257;71709;-82
2024/04/20 09:01:07;;;;;;;2.90;2.00;;;;;;;24.59;33.11;100749.50;106671;1254;73740;-80
2024/04/20 09:03:38;;;;;;;2.80;1.90;;;;;;;25.39;31.79;100747.58;106638;1255;62065;-87
2024/04/20 09:06:06;;;;;;;2.50;1.70;;;;;;;25.48;31.51;100743.23;106384;1258;62116;-87
2024/04/20 09:08:33;;;;;;;2.50;1.70;;;;;;;25.89;29.54;100736.10;106555;1253;68467;-89
2024/04/20 09:11:01;;;;;;;2.60;2.30;;;;;;;25.06;30.42;100736.35;106523;1257;69870;-89
2024/04/20 09:13:28;;;;;;;2.20;2.00;;;;;;;25.88;29.96;100731.98;106720;1251;73727;-86
2024/04/20 09:15:56;;;;;;;2.00;1.70;;;;;;;28.03;27.83;100719.32;106799;1257;62149;-80
2024/04/20 09:18:24;;;;;;;3.30;2.10;;;;;;;28.53;25.65;100713.05;106753;1252;62092;-80
2024/04/20 09:20:57;;;;;;;2.10;1.90;;;;;;;28.48;25.75;100708.35;106551;1251;76462;-79
2024/04/20 09:23:24;;;;;;;3.10;1.70;;;;;;;28.87;24.76;100706.21;106611;1254;62108;-88
2024/04/20 09:25:53;;;;;;;1.90;1.50;;;;;;;28.68;24.33;100700.02;106581;1256;74053;-80
2024/04/20 09:28:32;;;;;;;1.80;1.60;;;;;;;29.42;23.94;100701.77;106587;1257;61986;-80
2024/04/20 09:30:59;;;;;;;23.20;9.90;;;;;;;30.80;23.24;100700.06;106527;1251;61960;-81
2024/04/20 09:33:27;;;;;;;3.00;2.20;;;;;;;29.54;24.11;100705.20;106526;1252;65706;-86
2024/04/20 09:35:56;;;;;;;2.60;1.70;;;;;;;30.17;23.17;100706.89;106510;1257;61976;-81
2024/04/20 09:38:24;;;;;;;2.60;2.10;;;;;;;28.90;24.75;100708.80;106552;1257;73666;-89
2024/04/20 09:40:52;;;;;;;6.20;2.20;;;;;;;29.95;24.37;100700.33;106599;1251;62469;-80
2024/04/20 09:43:23;;;;;;;3.90;2.20;;;;;;;29.69;24.19;100695.14;106821;1251;62236;-84
2024/04/20 09:45:50;;;;;;;1.90;1.80;;;;;;;26.44;27.64;100702.67;106740;1251;68345;-84
2024/04/20 09:48:23;;;;;;;3.90;2.00;;;;;;;26.80;28.01;100696.16;106722;1256;62188;-81
2024/04/20 09:50:55;;;;;;;5.10;3.20;;;;;;;26.82;29.30;100687.89;106612;1255;74983;-87
2024/04/20 09:53:33;;;;;;;3.50;2.10;;;;;;;25.04;30.68;100689.13;106541;1251;62098;-81
2024/04/20 09:56:02;;;;;;;5.10;1.90;;;;;;;24.73;31.05;100682.63;106560;1251;62037;-80
2024/04/20 09:58:30;;;;;;;2.90;2.10;;;;;;;24.02;31.94;100682.29;106493;1251;77627;-80
2024/04/20 10:01:02;;;;;;;3.10;2.20;;;;;;;24.28;32.50;100684.59;106813;1251;69307;-85
2024/04/20 10:03:30;;;;;;;5.30;2.50;;;;;;;25.93;30.33;100682.11;106569;1255;66101;-80
2024/04/20 10:05:57;;;;;;;4.40;2.30;;;;;;;25.28;30.68;100678.52;106480;1257;61953;-86
2024/04/20 10:08:25;;;;;;;2.50;2.10;;;;;;;25.42;30.43;100678.67;106821;1251;62079;-86
2024/04/20 10:10:52;;;;;;;4.20;2.30;;;;;;;25.17;30.55;100679.46;106665;1251;69178;-81
2024/04/20 10:13:20;;;;;;;12.30;4.50;;;;;;;26.54;29.12;100675.10;106711;1251;62186;-86
2024/04/20 10:15:47;;;;;;;2.80;1.90;;;;;;;26.94;28.77;100677.17;106699;1251;63798;-86
2024/04/20 10:18:15;;;;;;;6.50;2.40;;;;;;;26.44;29.37;100677.11;106672;1258;62171;-88
2024/04/20 10:20:43;;;;;;;8.80;4.00;;;;;;;28.15;28.16;100673.38;106693;1251;62059;-85
2024/04/20 10:23:18;;;;;;;11.40;5.50;;;;;;;27.76;27.62;100671.69;106459;1254;68559;-87
2024/04/20 10:25:55;;;;;;;7.00;4.00;;;;;;;27.69;27.64;100675.27;106644;1256;62018;-81
2024/04/20 10:28:34;;;;;;;10.90;6.50;;;;;;;29.18;26.09;100674.23;106564;1254;187127;-87
2024/04/20 10:31:03;;;;;;;5.60;3.70;;;;;;;28.30;26.69;100679.50;106582;1251;62108;-81
2024/04/20 10:33:32;;;;;;;8.60;5.30;;;;;;;27.96;27.55;100683.16;106718;1253;62242;-80
2024/04/20 10:36:02;;;;;;;5.60;3.20;;;;;;;30.56;24.83;100679.35;106607;1251;69224;-88
2024/04/20 10:38:34;;;;;;;10.30;5.20;;;;;;;29.26;26.04;100678.11;106738;1254;60785;-88
2024/04/20 10:41:11;;;;;;;3.00;2.10;;;;;;;26.43;28.57;100680.52;106503;1254;63959;-87
2024/04/20 10:43:38;;;;;;;2.90;2.40;;;;;;;25.25;30.27;100682.73;106724;1252;62117;-87
2024/04/20 10:46:08;;;;;;;4.10;2.40;;;;;;;24.17;31.65;100672.32;106589;1251;62276;-87
2024/04/20 10:48:40;;;;;;;5.20;3.20;;;;;;;24.72;31.96;100671.66;106882;1251;76434;-88
2024/04/20 10:51:12;;;;;;;3.60;2.00;;;;;;;24.59;32.03;100671.73;106505;1251;69861;-81
2024/04/20 10:53:40;;;;;;;13.40;5.30;;;;;;;24.74;31.42;100670.05;106534;1254;72768;-88
2024/04/20 10:56:08;;;;;;;6.80;3.40;;;;;;;26.55;30.05;100662.52;106679;1254;62139;-80
2024/04/20 10:58:42;;;;;;;4.00;2.00;;;;;;;28.66;27.09;100653.59;106483;1252;61931;-80
2024/04/20 11:01:10;;;;;;;2.00;1.80;;;;;;;28.55;26.85;100649.86;106634;1253;65362;-87
2024/04/20 11:03:38;;;;;;;2.00;1.80;;;;;;;26.89;28.36;100660.16;106905;1251;62143;-84
2024/04/20 11:06:06;;;;;;;14.30;6.00;;;;;;;29.01;25.85;100652.63;106975;1251;72133;-82
2024/04/20 11:08:38;;;;;;;13.00;5.10;;;;;;;29.66;25.29;100650.84;106888;1251;62211;-86
2024/04/20 11:11:06;;;;;;;1.90;1.50;;;;;;;30.39;24.63;100651.00;106891;1251;62152;-82
2024/04/20 11:13:36;;;;;;;2.10;1.70;;;;;;;29.26;24.01;100654.51;106867;1251;77727;-80
2024/04/20 11:16:05;;;;;;;8.00;3.30;;;;;;;29.87;24.70;100649.48;106759;1251;62013;-81
2024/04/20 11:18:33;;;;;;;4.00;2.10;;;;;;;29.56;25.09;100645.84;106551;1257;64959;-81
2024/04/20 11:21:02;;;;;;;1.90;1.70;;;;;;;29.38;24.96;100642.95;106924;1251;62094;-87